createdAt,value
2023-03-11T00:00:31.145Z,28.62
2023-03-11T00:03:33.496Z,24.58
2023-03-11T00:06:35.988Z,22.23
2023-03-11T00:09:38.353Z,23.40
2023-03-11T00:12:40.487Z,23.90
2023-03-11T00:15:45.124Z,30.33
2023-03-11T00:18:50.850Z,30.70
2023-03-11T00:21:53.295Z,36.17
2023-03-11T00:24:55.377Z,24.75
2023-03-11T00:27:57.764Z,22.10
2023-03-11T00:31:00.217Z,24.10
2023-03-11T00:34:02.416Z,24.95
2023-03-11T00:37:04.632Z,22.87
2023-03-11T00:40:11.101Z,20.12
2023-03-11T00:43:14.056Z,20.70
2023-03-11T00:46:16.250Z,18.45
2023-03-11T00:49:18.668Z,20.60
2023-03-11T00:52:20.728Z,17.23
2023-03-11T00:55:26.131Z,16.77
2023-03-11T00:58:30.848Z,16.57
2023-03-11T01:01:33.447Z,19.60
2023-03-11T01:04:35.686Z,18.33
2023-03-11T01:07:37.890Z,19.23
2023-03-11T01:10:40.013Z,14.23
2023-03-11T01:13:42.572Z,17.00
2023-03-11T01:16:44.802Z,18.42
2023-03-11T01:19:46.976Z,16.45
2023-03-11T01:22:49.471Z,15.10
2023-03-11T01:25:51.469Z,15.82
2023-03-11T01:28:53.616Z,15.63
2023-03-11T01:31:55.717Z,16.42
2023-03-11T01:34:57.835Z,14.48
2023-03-11T01:38:00.278Z,14.15
2023-03-11T01:41:02.355Z,14.70
2023-03-11T01:44:05.283Z,13.17
2023-03-11T01:47:33.010Z,15.80
2023-03-11T01:50:40.453Z,15.15
2023-03-11T01:53:44.122Z,16.00
2023-03-11T01:56:48.343Z,17.50
2023-03-11T01:59:53.583Z,16.30
2023-03-11T02:02:59.842Z,13.82
2023-03-11T02:06:06.275Z,13.10
2023-03-11T02:09:08.734Z,15.10
2023-03-11T02:12:13.793Z,15.85
2023-03-11T02:15:16.014Z,12.53
2023-03-11T02:18:22.373Z,14.40
2023-03-11T02:21:34.552Z,9.15
2023-03-11T02:24:57.573Z,9.45
2023-03-11T02:28:01.333Z,9.55
2023-03-11T02:31:03.477Z,10.77
2023-03-11T02:34:10.514Z,11.55
2023-03-11T02:37:15.257Z,9.65
2023-03-11T02:40:23.290Z,10.35
2023-03-11T02:43:36.967Z,8.80
2023-03-11T02:46:41.879Z,8.67
2023-03-11T02:49:44.422Z,8.57
2023-03-11T02:52:49.200Z,8.35
2023-03-11T02:55:51.214Z,7.62
2023-03-11T02:58:53.587Z,7.15
2023-03-11T03:01:56.208Z,7.80
2023-03-11T03:04:58.315Z,8.68
2023-03-11T03:08:00.343Z,5.93
2023-03-11T03:11:03.450Z,4.47
2023-03-11T03:14:05.771Z,7.07
2023-03-11T03:17:07.876Z,5.67
2023-03-11T03:20:12.741Z,4.00
2023-03-11T03:23:14.874Z,6.30
2023-03-11T03:26:16.926Z,6.35
2023-03-11T03:29:19.187Z,6.03
2023-03-11T03:32:21.447Z,5.90
2023-03-11T03:35:23.690Z,7.57
2023-03-11T03:38:25.709Z,6.12
2023-03-11T03:41:27.880Z,8.93
2023-03-11T03:44:30.777Z,6.93
2023-03-11T03:47:34.240Z,7.47
2023-03-11T03:50:36.343Z,6.70
2023-03-11T03:53:39.100Z,8.25
2023-03-11T03:56:41.134Z,6.00
2023-03-11T03:59:43.460Z,7.35
2023-03-11T04:02:45.561Z,6.87
2023-03-11T04:05:47.655Z,7.10
2023-03-11T04:08:51.395Z,6.10
2023-03-11T04:11:53.481Z,5.37
2023-03-11T04:14:55.567Z,5.72
2023-03-11T04:17:57.833Z,5.57
2023-03-11T04:20:59.891Z,8.05
2023-03-11T04:24:01.982Z,5.10
2023-03-11T04:27:04.047Z,5.03
2023-03-11T04:30:07.548Z,6.07
2023-03-11T04:33:09.574Z,4.33
2023-03-11T04:36:13.070Z,3.78
2023-03-11T04:39:15.434Z,5.10
2023-03-11T04:42:19.254Z,4.43
2023-03-11T04:45:21.460Z,5.15
2023-03-11T04:48:24.864Z,4.87
2023-03-11T04:51:26.930Z,3.83
2023-03-11T04:54:29.435Z,4.75
2023-03-11T04:57:31.479Z,4.10
2023-03-11T05:00:33.630Z,5.20
2023-03-11T05:03:35.723Z,5.00
2023-03-11T05:06:37.761Z,6.30
2023-03-11T05:09:39.928Z,5.50
2023-03-11T05:12:42.219Z,5.20
2023-03-11T05:15:46.464Z,5.28
2023-03-11T05:18:48.653Z,4.20
2023-03-11T05:21:50.808Z,5.97
2023-03-11T05:24:52.831Z,4.55
2023-03-11T05:27:54.988Z,4.57
2023-03-11T05:30:57.108Z,4.30
2023-03-11T05:33:59.183Z,3.23
2023-03-11T05:37:03.190Z,4.65
2023-03-11T05:40:07.846Z,2.80
2023-03-11T05:43:10.085Z,2.83
2023-03-11T05:46:12.682Z,3.22
2023-03-11T05:49:14.871Z,3.23
2023-03-11T05:52:17.187Z,7.07
2023-03-11T05:55:19.256Z,2.35
2023-03-11T05:58:21.343Z,7.18
2023-03-11T06:01:23.402Z,4.90
2023-03-11T06:04:25.574Z,3.90
2023-03-11T06:07:27.704Z,1.17
2023-03-11T06:10:30.811Z,3.65
2023-03-11T06:13:33.585Z,3.20
2023-03-11T06:16:35.696Z,5.07
2023-03-11T06:19:37.745Z,4.20
2023-03-11T06:22:40.415Z,4.70
2023-03-11T06:25:42.473Z,3.80
2023-03-11T06:28:46.117Z,6.65
2023-03-11T06:31:48.734Z,3.47
2023-03-11T06:34:52.164Z,4.97
2023-03-11T06:37:54.190Z,3.67
2023-03-11T06:41:03.974Z,4.35
2023-03-11T06:44:06.057Z,2.47
2023-03-11T06:47:08.126Z,4.43
2023-03-11T06:50:11.168Z,3.57
2023-03-11T06:53:13.353Z,4.20
2023-03-11T06:56:15.431Z,4.53
2023-03-11T06:59:17.451Z,5.50
2023-03-11T07:02:20.316Z,6.85
2023-03-11T07:05:22.406Z,3.23
2023-03-11T07:08:24.970Z,2.35
2023-03-11T07:11:28.228Z,3.40
2023-03-11T07:14:30.171Z,6.82
2023-03-11T07:17:32.657Z,5.65
2023-03-11T07:20:34.831Z,2.93
2023-03-11T07:23:37.072Z,4.50
2023-03-11T07:26:39.181Z,5.10
2023-03-11T07:29:41.285Z,6.20
2023-03-11T07:32:43.435Z,4.40
2023-03-11T07:35:46.708Z,2.27
2023-03-11T07:38:54.809Z,3.53
2023-03-11T07:41:56.958Z,7.22
2023-03-11T07:44:59.287Z,4.43
2023-03-11T07:48:01.305Z,4.10
2023-03-11T07:51:11.432Z,12.40
2023-03-11T07:54:14.044Z,4.12
2023-03-11T07:57:17.389Z,4.55
2023-03-11T08:00:20.872Z,3.65
2023-03-11T08:03:25.883Z,4.93
2023-03-11T08:06:31.424Z,4.20
2023-03-11T08:09:35.464Z,3.28
2023-03-11T08:12:37.533Z,4.80
2023-03-11T08:15:39.753Z,3.53
2023-03-11T08:18:42.694Z,3.30
2023-03-11T08:21:45.089Z,4.17
2023-03-11T08:24:51.953Z,2.90
2023-03-11T08:27:53.967Z,5.20
2023-03-11T08:30:56.083Z,2.67
2023-03-11T08:34:04.168Z,6.28
2023-03-11T08:37:06.974Z,5.40
2023-03-11T08:40:10.822Z,4.87
2023-03-11T08:43:14.188Z,4.32
2023-03-11T08:46:24.865Z,3.15
2023-03-11T08:49:27.043Z,2.45
2023-03-11T08:52:29.319Z,3.90
2023-03-11T08:55:31.377Z,4.85
2023-03-11T08:58:33.520Z,4.35
2023-03-11T09:01:35.705Z,5.25
2023-03-11T09:04:37.736Z,4.68
2023-03-11T09:07:40.052Z,5.40
2023-03-11T09:10:42.157Z,3.70
2023-03-11T09:13:44.756Z,3.17
2023-03-11T09:16:46.795Z,5.15
2023-03-11T09:19:49.037Z,4.07
2023-03-11T09:22:54.417Z,2.87
2023-03-11T09:25:56.737Z,2.53
2023-03-11T09:28:58.956Z,5.28
2023-03-11T09:32:00.969Z,3.30
2023-03-11T09:35:03.256Z,4.53
2023-03-11T09:38:05.578Z,2.83
2023-03-11T09:41:27.488Z,4.28
2023-03-11T09:44:54.644Z,5.68
2023-03-11T09:48:12.808Z,9.73
2023-03-11T09:51:26.011Z,3.33
2023-03-11T09:54:30.813Z,3.17
2023-03-11T09:57:37.233Z,3.42
2023-03-11T10:00:40.297Z,8.85
2023-03-11T10:03:43.960Z,6.30
2023-03-11T10:06:48.114Z,3.72
2023-03-11T10:09:56.846Z,4.10
2023-03-11T10:13:16.431Z,3.45
2023-03-11T10:16:41.430Z,3.65
2023-03-11T10:19:49.740Z,3.03
2023-03-11T10:23:16.526Z,4.75
2023-03-11T10:26:18.542Z,2.03
2023-03-11T10:29:38.962Z,2.08
2023-03-11T10:33:14.113Z,2.45
2023-03-11T10:36:26.609Z,3.22
2023-03-11T10:39:29.091Z,2.25
2023-03-11T10:42:32.657Z,2.20
2023-03-11T10:45:41.626Z,4.22
2023-03-11T10:48:43.934Z,1.33
2023-03-11T10:51:48.198Z,2.75
2023-03-11T10:55:01.429Z,2.87
2023-03-11T10:58:12.430Z,18.00
2023-03-11T11:01:17.156Z,1.35
2023-03-11T11:04:31.180Z,1.42
2023-03-11T11:07:37.501Z,1.85
2023-03-11T11:10:52.957Z,2.60
2023-03-11T11:14:00.475Z,1.20
2023-03-11T11:17:02.681Z,2.75
2023-03-11T11:20:13.235Z,3.72
2023-03-11T11:23:27.040Z,2.08
2023-03-11T11:26:29.094Z,1.33
2023-03-11T11:29:31.725Z,2.10
2023-03-11T11:32:33.866Z,2.15
2023-03-11T11:35:54.290Z,3.25
2023-03-11T11:38:59.181Z,2.87
2023-03-11T11:42:01.921Z,2.25
2023-03-11T11:45:13.939Z,2.97
2023-03-11T11:48:41.266Z,4.68
2023-03-11T11:51:59.358Z,2.97
2023-03-11T11:55:21.306Z,2.95
2023-03-11T11:58:23.605Z,3.10
2023-03-11T12:01:25.650Z,1.93
2023-03-11T12:04:37.943Z,2.15
2023-03-11T12:07:52.227Z,1.40
2023-03-11T12:11:00.413Z,4.15
2023-03-11T12:14:37.173Z,3.92
2023-03-11T12:17:43.983Z,1.13
2023-03-11T12:20:53.849Z,3.62
2023-03-11T12:24:02.025Z,2.92
2023-03-11T12:27:15.661Z,3.40
2023-03-11T12:30:23.822Z,2.87
2023-03-11T12:33:37.488Z,2.93
2023-03-11T12:36:44.014Z,3.50
2023-03-11T12:39:46.145Z,3.15
2023-03-11T12:42:48.145Z,4.87
2023-03-11T12:45:52.315Z,4.45
2023-03-11T12:49:15.092Z,2.60
2023-03-11T12:52:18.464Z,3.25
2023-03-11T12:55:25.346Z,2.72
2023-03-11T12:59:05.280Z,2.80
2023-03-11T13:02:10.355Z,2.60
2023-03-11T13:05:25.179Z,2.27
2023-03-11T13:08:37.664Z,2.87
2023-03-11T13:11:43.343Z,2.55
2023-03-11T13:14:45.691Z,5.22
2023-03-11T13:17:59.006Z,3.40
2023-03-11T13:21:02.366Z,2.97
2023-03-11T13:24:22.997Z,4.50
2023-03-11T13:27:38.488Z,2.80
2023-03-11T13:30:51.914Z,3.65
2023-03-11T13:34:21.460Z,5.28
2023-03-11T13:38:05.189Z,2.20
2023-03-11T13:41:34.796Z,2.53
2023-03-11T13:44:40.363Z,4.07
2023-03-11T13:47:46.868Z,2.60
2023-03-11T13:51:27.545Z,3.90
2023-03-11T13:54:37.583Z,1.97
2023-03-11T13:57:39.977Z,2.25
2023-03-11T14:00:50.148Z,3.33
2023-03-11T14:03:52.225Z,2.12
2023-03-11T14:06:54.665Z,2.78
2023-03-11T14:10:12.218Z,4.73
2023-03-11T14:13:17.913Z,2.58
2023-03-11T14:16:35.370Z,3.65
2023-03-11T14:19:37.690Z,1.67
2023-03-11T14:22:39.986Z,2.80
2023-03-11T14:25:42.055Z,2.57
2023-03-11T14:28:51.388Z,3.83
2023-03-11T14:31:53.732Z,1.45
2023-03-11T14:34:57.199Z,2.05
2023-03-11T14:38:00.114Z,1.77
2023-03-11T14:41:14.808Z,3.03
2023-03-11T14:44:18.067Z,2.50
2023-03-11T14:47:25.264Z,3.33
2023-03-11T14:50:32.067Z,2.25
2023-03-11T14:53:34.802Z,2.40
2023-03-11T14:56:42.007Z,3.50
2023-03-11T14:59:48.289Z,3.33
2023-03-11T15:03:12.724Z,3.50
2023-03-11T15:06:17.581Z,2.25
2023-03-11T15:09:23.082Z,3.95
2023-03-11T15:12:35.223Z,4.13
2023-03-11T15:15:38.333Z,3.53
2023-03-11T15:18:43.132Z,2.30
2023-03-11T15:21:47.371Z,2.95
2023-03-11T15:24:58.246Z,1.23
2023-03-11T15:28:14.651Z,2.87
2023-03-11T15:31:22.806Z,2.65
2023-03-11T15:34:33.442Z,1.75
2023-03-11T15:37:35.752Z,1.75
2023-03-11T15:40:45.680Z,1.55
2023-03-11T15:43:49.380Z,1.37
2023-03-11T15:46:52.129Z,1.25
2023-03-11T15:49:54.523Z,2.20
2023-03-11T15:52:59.013Z,1.67
2023-03-11T15:56:10.690Z,3.25
2023-03-11T15:59:16.251Z,2.87
2023-03-11T16:02:24.557Z,1.85
2023-03-11T16:05:26.945Z,8.00
2023-03-11T16:08:29.160Z,3.33
2023-03-11T16:11:32.934Z,4.72
2023-03-11T16:14:35.673Z,3.03
2023-03-11T16:17:49.340Z,4.20
2023-03-11T16:20:55.794Z,3.08
2023-03-11T16:23:59.008Z,2.78
2023-03-11T16:27:01.191Z,2.03
2023-03-11T16:30:04.294Z,3.03
2023-03-11T16:33:07.539Z,3.12
2023-03-11T16:36:11.570Z,3.75
2023-03-11T16:39:15.354Z,3.97
2023-03-11T16:42:24.155Z,2.47
2023-03-11T16:45:27.857Z,1.63
2023-03-11T16:48:30.077Z,2.35
2023-03-11T16:51:32.956Z,6.25
2023-03-11T16:54:35.452Z,6.00
2023-03-11T16:57:41.226Z,10.45
2023-03-11T17:00:44.036Z,3.73
2023-03-11T17:03:48.829Z,1.92
2023-03-11T17:06:51.091Z,5.05
2023-03-11T17:09:53.506Z,2.12
2023-03-11T17:12:56.161Z,3.05
2023-03-11T17:16:02.970Z,4.77
2023-03-11T17:19:05.730Z,2.67
2023-03-11T17:22:08.727Z,2.53
2023-03-11T17:25:13.010Z,4.20
2023-03-11T17:28:17.231Z,2.72
2023-03-11T17:31:19.804Z,3.63
2023-03-11T17:34:23.431Z,2.25
2023-03-11T17:37:28.190Z,3.35
2023-03-11T17:40:32.231Z,1.85
2023-03-11T17:43:35.377Z,3.08
2023-03-11T17:46:39.580Z,1.67
2023-03-11T17:49:42.553Z,3.30
2023-03-11T17:52:47.817Z,2.83
2023-03-11T17:55:50.992Z,3.83
2023-03-11T17:58:54.328Z,4.78
2023-03-11T18:01:57.266Z,1.97
2023-03-11T18:05:00.458Z,2.65
2023-03-11T18:08:03.422Z,2.85
2023-03-11T18:11:12.302Z,3.47
2023-03-11T18:14:15.420Z,1.45
2023-03-11T18:17:19.070Z,1.33
2023-03-11T18:20:22.435Z,2.58
2023-03-11T18:23:26.030Z,3.45
2023-03-11T18:26:30.339Z,5.43
2023-03-11T18:29:33.154Z,1.45
2023-03-11T18:32:38.714Z,4.40
2023-03-11T18:35:43.228Z,3.58
2023-03-11T18:38:46.883Z,3.50
2023-03-11T18:41:49.985Z,4.30
2023-03-11T18:44:52.799Z,1.83
2023-03-11T18:47:55.479Z,1.83
2023-03-11T18:50:58.546Z,1.40
2023-03-11T18:54:02.585Z,1.42
2023-03-11T18:57:05.261Z,4.75
2023-03-11T19:00:10.491Z,2.67
2023-03-11T19:03:13.988Z,0.67
2023-03-11T19:06:17.222Z,1.75
2023-03-11T19:09:20.097Z,2.53
2023-03-11T19:12:22.576Z,2.78
2023-03-11T19:15:25.190Z,1.55
2023-03-11T19:18:28.349Z,3.10
2023-03-11T19:21:30.966Z,1.95
2023-03-11T19:24:36.372Z,1.92
2023-03-11T19:27:40.789Z,2.28
2023-03-11T19:30:43.741Z,1.55
2023-03-11T19:33:51.939Z,3.03
2023-03-11T19:36:54.881Z,3.42
2023-03-11T19:39:58.108Z,1.67
2023-03-11T19:43:01.077Z,1.85
2023-03-11T19:46:08.633Z,2.05
2023-03-11T19:49:12.684Z,2.97
2023-03-11T19:52:15.627Z,1.90
2023-03-11T19:55:18.516Z,3.20
2023-03-11T19:58:23.352Z,2.20
2023-03-11T20:01:28.825Z,2.87
2023-03-11T20:04:31.489Z,1.97
2023-03-11T20:07:35.188Z,1.85
2023-03-11T20:10:42.037Z,2.30
2023-03-11T20:13:45.713Z,2.00
2023-03-11T20:16:49.772Z,1.37
2023-03-11T20:19:53.131Z,3.17
2023-03-11T20:22:57.629Z,3.00
2023-03-11T20:26:00.240Z,2.80
2023-03-11T20:29:06.594Z,1.30
2023-03-11T20:32:10.795Z,2.87
2023-03-11T20:35:15.768Z,3.30
2023-03-11T20:38:18.542Z,2.37
2023-03-11T20:41:23.908Z,2.40
2023-03-11T20:44:26.727Z,1.75
2023-03-11T20:47:29.419Z,2.00
2023-03-11T20:50:32.390Z,1.57
2023-03-11T20:53:34.886Z,2.67
2023-03-11T20:56:37.448Z,0.90
2023-03-11T20:59:40.501Z,2.40
2023-03-11T21:02:44.404Z,3.25
2023-03-11T21:05:46.829Z,1.63
2023-03-11T21:08:50.450Z,0.73
2023-03-11T21:11:52.899Z,3.25
2023-03-11T21:14:55.687Z,3.67
2023-03-11T21:17:58.187Z,2.20
2023-03-11T21:21:01.558Z,2.87
2023-03-11T21:24:04.427Z,0.85
2023-03-11T21:27:07.272Z,2.58
2023-03-11T21:30:11.096Z,3.65
2023-03-11T21:33:14.202Z,2.03
2023-03-11T21:36:17.879Z,3.07
2023-03-11T21:39:21.890Z,1.62
2023-03-11T21:42:24.520Z,4.65
2023-03-11T21:45:26.886Z,10.65
2023-03-11T21:48:29.113Z,1.58
2023-03-11T21:51:31.412Z,2.73
2023-03-11T21:54:33.475Z,2.22
2023-03-11T21:57:35.541Z,2.03
2023-03-11T22:00:37.945Z,2.17
2023-03-11T22:03:41.170Z,2.87
2023-03-11T22:06:43.348Z,1.03
2023-03-11T22:09:45.688Z,1.90
2023-03-11T22:12:48.044Z,1.83
2023-03-11T22:15:50.428Z,2.45
2023-03-11T22:18:53.933Z,2.75
2023-03-11T22:21:56.374Z,3.47
2023-03-11T22:24:58.503Z,2.37
2023-03-11T22:28:00.678Z,4.93
2023-03-11T22:31:14.006Z,3.30
2023-03-11T22:34:16.120Z,3.62
2023-03-11T22:37:19.972Z,3.50
2023-03-11T22:40:22.129Z,3.28
2023-03-11T22:43:24.395Z,2.17
2023-03-11T22:46:26.729Z,2.65
2023-03-11T22:49:28.936Z,3.30
2023-03-11T22:52:31.175Z,6.10
2023-03-11T22:55:33.473Z,3.50
2023-03-11T22:58:35.672Z,6.60
2023-03-11T23:01:37.849Z,3.40
2023-03-11T23:04:39.836Z,4.20
2023-03-11T23:07:42.591Z,3.43
2023-03-11T23:10:47.910Z,2.12
2023-03-11T23:13:50.770Z,3.42
2023-03-11T23:16:52.789Z,2.25
2023-03-11T23:19:54.955Z,2.83
2023-03-11T23:22:57.023Z,3.07
2023-03-11T23:25:59.172Z,4.05
2023-03-11T23:29:01.748Z,3.75
2023-03-11T23:32:03.879Z,4.25
2023-03-11T23:35:06.953Z,3.70
2023-03-11T23:38:09.480Z,4.87
2023-03-11T23:41:14.945Z,4.32
2023-03-11T23:44:17.181Z,3.40
2023-03-11T23:47:19.438Z,4.05
2023-03-11T23:50:21.465Z,4.68
2023-03-11T23:53:25.581Z,2.20
2023-03-11T23:56:27.711Z,2.00
2023-03-11T23:59:29.748Z,4.43
